sensor_id;sensor_type;location;lat;lon;timestamp;pressure;altitude;pressure_sealevel;temperature;humidity
24558;BME280;12726;49.148;8.582;2023-01-28T00:00:48;101177.84;;;1.48;88.77
24558;BME280;12726;49.148;8.582;2023-01-28T00:03:33;101179.53;;;1.49;88.79
24558;BME280;12726;49.148;8.582;2023-01-28T00:06:19;101176.88;;;1.49;89.26
24558;BME280;12726;49.148;8.582;2023-01-28T00:09:06;101183.59;;;1.53;88.88
24558;BME280;12726;49.148;8.582;2023-01-28T00:11:51;101178.41;;;1.51;88.80
24558;BME280;12726;49.148;8.582;2023-01-28T00:14:37;101173.22;;;1.50;89.24
24558;BME280;12726;49.148;8.582;2023-01-28T00:17:22;101175.03;;;1.49;89.19
24558;BME280;12726;49.148;8.582;2023-01-28T00:20:09;101173.38;;;1.48;89.34
24558;BME280;12726;49.148;8.582;2023-01-28T00:22:54;101168.22;;;1.47;89.58
24558;BME280;12726;49.148;8.582;2023-01-28T00:25:41;101166.53;;;1.46;89.81
24558;BME280;12726;49.148;8.582;2023-01-28T00:28:26;101173.94;;;1.52;89.64
24558;BME280;12726;49.148;8.582;2023-01-28T00:31:14;101167.06;;;1.49;89.62
24558;BME280;12726;49.148;8.582;2023-01-28T00:34:00;101169.72;;;1.49;89.41
24558;BME280;12726;49.148;8.582;2023-01-28T00:36:45;101166.28;;;1.49;89.37
24558;BME280;12726;49.148;8.582;2023-01-28T00:39:39;101169.19;;;1.46;89.96
24558;BME280;12726;49.148;8.582;2023-01-28T00:42:26;101162.06;;;1.46;89.76
24558;BME280;12726;49.148;8.582;2023-01-28T00:45:11;101159.28;;;1.48;89.92
24558;BME280;12726;49.148;8.582;2023-01-28T00:47:56;101155.78;;;1.47;90.00
24558;BME280;12726;49.148;8.582;2023-01-28T00:50:43;101157.47;;;1.48;90.06
24558;BME280;12726;49.148;8.582;2023-01-28T00:53:29;101155.78;;;1.47;89.74
24558;BME280;12726;49.148;8.582;2023-01-28T00:56:16;101158.31;;;1.49;89.93
24558;BME280;12726;49.148;8.582;2023-01-28T00:59:04;101154.81;;;1.48;89.73
24558;BME280;12726;49.148;8.582;2023-01-28T01:01:49;101161.09;;;1.47;90.40
24558;BME280;12726;49.148;8.582;2023-01-28T01:04:34;101156.63;;;1.48;90.31
24558;BME280;12726;49.148;8.582;2023-01-28T01:07:22;101163.16;;;1.44;90.12
24558;BME280;12726;49.148;8.582;2023-01-28T01:10:17;101158.56;;;1.46;90.23
24558;BME280;12726;49.148;8.582;2023-01-28T01:13:02;101159.41;;;1.46;90.67
24558;BME280;12726;49.148;8.582;2023-01-28T01:15:49;101161.09;;;1.47;90.62
24558;BME280;12726;49.148;8.582;2023-01-28T01:18:35;101162.91;;;1.47;90.39
24558;BME280;12726;49.148;8.582;2023-01-28T01:21:23;101168.38;;;1.55;90.26
24558;BME280;12726;49.148;8.582;2023-01-28T01:24:08;101155.94;;;1.55;90.55
24558;BME280;12726;49.148;8.582;2023-01-28T01:26:54;101163.31;;;1.52;90.85
24558;BME280;12726;49.148;8.582;2023-01-28T01:29:39;101167.06;;;1.49;91.03
24558;BME280;12726;49.148;8.582;2023-01-28T01:32:28;101171.69;;;1.47;91.25
24558;BME280;12726;49.148;8.582;2023-01-28T01:35:14;101166.53;;;1.46;91.60
24558;BME280;12726;49.148;8.582;2023-01-28T01:37:59;101171.97;;;1.44;92.10
24558;BME280;12726;49.148;8.582;2023-01-28T01:40:45;101169.44;;;1.43;92.10
24558;BME280;12726;49.148;8.582;2023-01-28T01:43:47;101170.44;;;1.42;92.49
24558;BME280;12726;49.148;8.582;2023-01-28T01:46:36;101165.38;;;1.39;92.71
24558;BME280;12726;49.148;8.582;2023-01-28T01:49:25;101165.13;;;1.42;93.15
24558;BME280;12726;49.148;8.582;2023-01-28T01:52:13;101161.34;;;1.44;93.27
24558;BME280;12726;49.148;8.582;2023-01-28T01:55:03;101165.81;;;1.44;93.54
24558;BME280;12726;49.148;8.582;2023-01-28T01:57:53;101160.50;;;1.44;93.49
24558;BME280;12726;49.148;8.582;2023-01-28T02:00:40;101148.78;;;1.46;93.37
24558;BME280;12726;49.148;8.582;2023-01-28T02:03:28;101159.66;;;1.43;93.80
24558;BME280;12726;49.148;8.582;2023-01-28T02:06:17;101160.50;;;1.44;93.55
24558;BME280;12726;49.148;8.582;2023-01-28T02:09:06;101165.81;;;1.44;92.99
24558;BME280;12726;49.148;8.582;2023-01-28T02:11:53;101154.53;;;1.42;93.13
24558;BME280;12726;49.148;8.582;2023-01-28T02:14:43;101158.81;;;1.43;93.24
24558;BME280;12726;49.148;8.582;2023-01-28T02:17:30;101164.97;;;1.43;93.27
24558;BME280;12726;49.148;8.582;2023-01-28T02:20:18;101162.19;;;1.45;92.84
24558;BME280;12726;49.148;8.582;2023-01-28T02:23:30;101160.50;;;1.44;93.14
24558;BME280;12726;49.148;8.582;2023-01-28T02:26:41;101162.19;;;1.45;93.13
24558;BME280;12726;49.148;8.582;2023-01-28T02:29:37;101167.50;;;1.45;92.57
24558;BME280;12726;49.148;8.582;2023-01-28T02:32:30;101174.22;;;1.49;92.67
24558;BME280;12726;49.148;8.582;2023-01-28T02:35:23;101174.22;;;1.49;92.85
24558;BME280;12726;49.148;8.582;2023-01-28T02:38:15;101164.13;;;1.43;93.45
24558;BME280;12726;49.148;8.582;2023-01-28T02:41:06;101166.78;;;1.43;94.23
24558;BME280;12726;49.148;8.582;2023-01-28T02:43:53;101166.34;;;1.38;94.74
24558;BME280;12726;49.148;8.582;2023-01-28T02:46:39;101175.41;;;1.35;95.10
24558;BME280;12726;49.148;8.582;2023-01-28T02:49:44;101180.34;;;1.40;95.23
24558;BME280;12726;49.148;8.582;2023-01-28T02:52:47;101181.59;;;1.45;94.65
24558;BME280;12726;49.148;8.582;2023-01-28T02:56:03;101177.84;;;1.48;94.84
24558;BME280;12726;49.148;8.582;2023-01-28T02:58:59;101179.38;;;1.50;95.07
24558;BME280;12726;49.148;8.582;2023-01-28T03:02:11;101178.41;;;1.51;95.20
24558;BME280;12726;49.148;8.582;2023-01-28T03:05:00;101184.31;;;1.55;95.46
24558;BME280;12726;49.148;8.582;2023-01-28T03:07:47;101195.59;;;1.57;95.39
24558;BME280;12726;49.148;8.582;2023-01-28T03:10:35;101189.31;;;1.58;95.50
24558;BME280;12726;49.148;8.582;2023-01-28T03:13:20;101192.81;;;1.58;95.57
24558;BME280;12726;49.148;8.582;2023-01-28T03:16:24;101183.88;;;1.60;95.76
24558;BME280;12726;49.148;8.582;2023-01-28T03:19:29;101183.47;;;1.64;96.28
24558;BME280;12726;49.148;8.582;2023-01-28T03:22:36;101187.94;;;1.64;96.71
24558;BME280;12726;49.148;8.582;2023-01-28T03:25:44;101171.03;;;1.65;97.25
24558;BME280;12726;49.148;8.582;2023-01-28T03:28:48;101174.41;;;1.67;97.36
24558;BME280;12726;49.148;8.582;2023-01-28T03:31:52;101181.38;;;1.68;97.86
24558;BME280;12726;49.148;8.582;2023-01-28T03:34:57;101181.81;;;1.73;98.74
24558;BME280;12726;49.148;8.582;2023-01-28T03:38:01;101185.19;;;1.75;98.33
24558;BME280;12726;49.148;8.582;2023-01-28T03:41:02;101183.91;;;1.79;99.13
24558;BME280;12726;49.148;8.582;2023-01-28T03:43:47;101178.19;;;1.74;98.73
24558;BME280;12726;49.148;8.582;2023-01-28T03:46:33;101186.28;;;1.72;99.52
24558;BME280;12726;49.148;8.582;2023-01-28T03:49:21;101196.63;;;1.75;99.43
24558;BME280;12726;49.148;8.582;2023-01-28T03:52:07;101186.16;;;1.74;99.88
24558;BME280;12726;49.148;8.582;2023-01-28T03:54:52;101190.91;;;1.70;99.62
24558;BME280;12726;49.148;8.582;2023-01-28T03:57:38;101192.47;;;1.82;99.67
24558;BME280;12726;49.148;8.582;2023-01-28T04:00:24;101203.09;;;1.82;99.19
24558;BME280;12726;49.148;8.582;2023-01-28T04:03:09;101197.78;;;1.82;98.90
24558;BME280;12726;49.148;8.582;2023-01-28T04:06:00;101204.34;;;1.88;98.76
24558;BME280;12726;49.148;8.582;2023-01-28T04:08:47;101203.78;;;1.84;98.81
24558;BME280;12726;49.148;8.582;2023-01-28T04:11:39;101210.22;;;1.91;98.60
24558;BME280;12726;49.148;8.582;2023-01-28T04:14:24;101206.03;;;1.89;98.62
24558;BME280;12726;49.148;8.582;2023-01-28T04:17:09;101211.88;;;1.83;98.49
24558;BME280;12726;49.148;8.582;2023-01-28T04:19:54;101215.94;;;1.77;98.91
24558;BME280;12726;49.148;8.582;2023-01-28T04:22:40;101215.94;;;1.77;99.37
24558;BME280;12726;49.148;8.582;2023-01-28T04:25:27;101218.16;;;1.82;99.63
24558;BME280;12726;49.148;8.582;2023-01-28T04:28:13;101212.28;;;1.78;99.31
24558;BME280;12726;49.148;8.582;2023-01-28T04:30:58;101215.94;;;1.77;99.53
24558;BME280;12726;49.148;8.582;2023-01-28T04:33:43;101217.31;;;1.81;99.75
24558;BME280;12726;49.148;8.582;2023-01-28T04:36:29;101219.41;;;1.78;99.61
24558;BME280;12726;49.148;8.582;2023-01-28T04:39:14;101225.72;;;1.77;99.72
24558;BME280;12726;49.148;8.582;2023-01-28T04:42:01;101224.03;;;1.76;99.54
24558;BME280;12726;49.148;8.582;2023-01-28T04:44:46;101227.66;;;1.75;99.79
24558;BME280;12726;49.148;8.582;2023-01-28T04:47:31;101228.78;;;1.82;99.51
24558;BME280;12726;49.148;8.582;2023-01-28T04:50:17;101230.31;;;1.75;99.75
24558;BME280;12726;49.148;8.582;2023-01-28T04:53:02;101229.72;;;1.71;100.00
24558;BME280;12726;49.148;8.582;2023-01-28T04:55:48;101226.94;;;1.73;100.00
24558;BME280;12726;49.148;8.582;2023-01-28T04:58:34;101225.41;;;1.70;100.00
24558;BME280;12726;49.148;8.582;2023-01-28T05:01:20;101234.47;;;1.68;100.00
24558;BME280;12726;49.148;8.582;2023-01-28T05:04:05;101233.88;;;1.64;100.00
24558;BME280;12726;49.148;8.582;2023-01-28T05:06:51;101231.22;;;1.64;100.00
24558;BME280;12726;49.148;8.582;2023-01-28T05:09:36;101235.03;;;1.62;100.00
24558;BME280;12726;49.148;8.582;2023-01-28T05:12:21;101233.22;;;1.62;100.00
24558;BME280;12726;49.148;8.582;2023-01-28T05:15:09;101230.56;;;1.62;100.00
24558;BME280;12726;49.148;8.582;2023-01-28T05:17:54;101237.53;;;1.63;100.00
24558;BME280;12726;49.148;8.582;2023-01-28T05:20:40;101231.53;;;1.61;100.00
24558;BME280;12726;49.148;8.582;2023-01-28T05:23:26;101236.97;;;1.60;100.00
24558;BME280;12726;49.148;8.582;2023-01-28T05:26:11;101240.03;;;1.55;100.00
24558;BME280;12726;49.148;8.582;2023-01-28T05:28:56;101243.66;;;1.54;100.00
24558;BME280;12726;49.148;8.582;2023-01-28T05:31:43;101253.84;;;1.49;100.00
24558;BME280;12726;49.148;8.582;2023-01-28T05:34:28;101253.84;;;1.49;100.00
24558;BME280;12726;49.148;8.582;2023-01-28T05:37:13;101246.97;;;1.46;100.00
24558;BME280;12726;49.148;8.582;2023-01-28T05:39:59;101247.94;;;1.45;100.00
24558;BME280;12726;49.148;8.582;2023-01-28T05:42:44;101247.09;;;1.45;100.00
24558;BME280;12726;49.148;8.582;2023-01-28T05:45:29;101258.00;;;1.42;100.00
24558;BME280;12726;49.148;8.582;2023-01-28T05:48:16;101252.09;;;1.38;100.00
24558;BME280;12726;49.148;8.582;2023-01-28T05:51:01;101261.03;;;1.37;100.00
24558;BME280;12726;49.148;8.582;2023-01-28T05:53:48;101260.06;;;1.38;100.00
24558;BME280;12726;49.148;8.582;2023-01-28T05:56:33;101267.28;;;1.36;100.00
24558;BME280;12726;49.148;8.582;2023-01-28T05:59:19;101263.66;;;1.37;100.00
24558;BME280;12726;49.148;8.582;2023-01-28T06:02:05;101262.94;;;1.35;100.00
24558;BME280;12726;49.148;8.582;2023-01-28T06:04:51;101264.91;;;1.33;100.00
24558;BME280;12726;49.148;8.582;2023-01-28T06:07:37;101277.34;;;1.33;100.00
24558;BME280;12726;49.148;8.582;2023-01-28T06:10:22;101276.50;;;1.32;100.00
24558;BME280;12726;49.148;8.582;2023-01-28T06:13:08;101280.97;;;1.32;100.00
24558;BME280;12726;49.148;8.582;2023-01-28T06:15:53;101288.06;;;1.31;100.00
24558;BME280;12726;49.148;8.582;2023-01-28T06:18:38;101284.59;;;1.31;100.00
24558;BME280;12726;49.148;8.582;2023-01-28T06:21:25;101285.56;;;1.30;100.00
24558;BME280;12726;49.148;8.582;2023-01-28T06:24:11;101292.94;;;1.26;100.00
24558;BME280;12726;49.148;8.582;2023-01-28T06:26:57;101303.88;;;1.33;100.00
24558;BME280;12726;49.148;8.582;2023-01-28T06:29:42;101310.16;;;1.32;100.00
24558;BME280;12726;49.148;8.582;2023-01-28T06:32:28;101311.09;;;1.31;100.00
24558;BME280;12726;49.148;8.582;2023-01-28T06:35:13;101304.13;;;1.30;100.00
24558;BME280;12726;49.148;8.582;2023-01-28T06:38:00;101299.78;;;1.29;100.00
24558;BME280;12726;49.148;8.582;2023-01-28T06:40:50;101305.25;;;1.27;100.00
24558;BME280;12726;49.148;8.582;2023-01-28T06:43:36;101308.59;;;1.29;100.00
24558;BME280;12726;49.148;8.582;2023-01-28T06:46:21;101314.84;;;1.28;100.00
24558;BME280;12726;49.148;8.582;2023-01-28T06:49:07;101307.56;;;1.21;100.00
24558;BME280;12726;49.148;8.582;2023-01-28T06:51:53;101321.84;;;1.29;100.00
24558;BME280;12726;49.148;8.582;2023-01-28T06:54:39;101325.34;;;1.30;100.00
24558;BME280;12726;49.148;8.582;2023-01-28T06:57:24;101326.19;;;1.30;100.00
24558;BME280;12726;49.148;8.582;2023-01-28T07:00:11;101331.50;;;1.30;100.00
24558;BME280;12726;49.148;8.582;2023-01-28T07:02:58;101332.34;;;1.31;100.00
24558;BME280;12726;49.148;8.582;2023-01-28T07:05:43;101331.94;;;1.35;100.00
24558;BME280;12726;49.148;8.582;2023-01-28T07:08:29;101336.75;;;1.41;100.00
24558;BME280;12726;49.148;8.582;2023-01-28T07:11:15;101333.09;;;1.42;100.00
24558;BME280;12726;49.148;8.582;2023-01-28T07:14:01;101334.47;;;1.37;100.00
24558;BME280;12726;49.148;8.582;2023-01-28T07:16:46;101330.44;;;1.42;100.00
24558;BME280;12726;49.148;8.582;2023-01-28T07:19:31;101337.44;;;1.43;100.00
24558;BME280;12726;49.148;8.582;2023-01-28T07:22:16;101342.63;;;1.45;100.00
24558;BME280;12726;49.148;8.582;2023-01-28T07:25:02;101343.56;;;1.44;100.00
24558;BME280;12726;49.148;8.582;2023-01-28T07:27:51;101344.41;;;1.44;100.00
24558;BME280;12726;49.148;8.582;2023-01-28T07:30:36;101348.19;;;1.42;100.00
24558;BME280;12726;49.148;8.582;2023-01-28T07:33:22;101354.19;;;1.44;100.00
24558;BME280;12726;49.148;8.582;2023-01-28T07:36:07;101356.16;;;1.42;100.00
24558;BME280;12726;49.148;8.582;2023-01-28T07:38:52;101356.00;;;1.43;100.00
24558;BME280;12726;49.148;8.582;2023-01-28T07:41:38;101353.53;;;1.51;100.00
24558;BME280;12726;49.148;8.582;2023-01-28T07:44:24;101363.31;;;1.51;100.00
24558;BME280;12726;49.148;8.582;2023-01-28T07:47:10;101359.81;;;1.50;100.00
24558;BME280;12726;49.148;8.582;2023-01-28T07:49:55;101369.75;;;1.48;100.00
24558;BME280;12726;49.148;8.582;2023-01-28T07:52:41;101368.06;;;1.47;100.00
24558;BME280;12726;49.148;8.582;2023-01-28T07:55:28;101360.47;;;1.43;100.00
24558;BME280;12726;49.148;8.582;2023-01-28T07:58:13;101366.94;;;1.50;100.00
24558;BME280;12726;49.148;8.582;2023-01-28T08:01:00;101377.19;;;1.54;100.00
24558;BME280;12726;49.148;8.582;2023-01-28T08:03:46;101368.25;;;1.55;100.00
24558;BME280;12726;49.148;8.582;2023-01-28T08:06:31;101375.50;;;1.53;100.00
24558;BME280;12726;49.148;8.582;2023-01-28T08:09:20;101368.50;;;1.52;100.00
24558;BME280;12726;49.148;8.582;2023-01-28T08:12:05;101374.66;;;1.53;100.00
24558;BME280;12726;49.148;8.582;2023-01-28T08:14:51;101386.66;;;1.57;100.00
24558;BME280;12726;49.148;8.582;2023-01-28T08:17:38;101374.97;;;1.60;100.00
24558;BME280;12726;49.148;8.582;2023-01-28T08:20:24;101375.69;;;1.62;100.00
24558;BME280;12726;49.148;8.582;2023-01-28T08:23:11;101375.56;;;1.63;100.00
24558;BME280;12726;49.148;8.582;2023-01-28T08:25:57;101382.41;;;1.66;100.00
24558;BME280;12726;49.148;8.582;2023-01-28T08:28:42;101391.31;;;1.65;100.00
24558;BME280;12726;49.148;8.582;2023-01-28T08:31:28;101383.13;;;1.68;100.00
24558;BME280;12726;49.148;8.582;2023-01-28T08:34:14;101389.69;;;1.73;100.00
24558;BME280;12726;49.148;8.582;2023-01-28T08:37:00;101398.09;;;1.78;100.00
24558;BME280;12726;49.148;8.582;2023-01-28T08:39:45;101402.19;;;1.82;100.00
24558;BME280;12726;49.148;8.582;2023-01-28T08:42:30;101393.94;;;1.85;100.00
24558;BME280;12726;49.148;8.582;2023-01-28T08:45:16;101393.69;;;1.88;100.00
24558;BME280;12726;49.148;8.582;2023-01-28T08:48:04;101401.41;;;1.91;100.00
24558;BME280;12726;49.148;8.582;2023-01-28T08:50:51;101387.97;;;1.93;100.00
24558;BME280;12726;49.148;8.582;2023-01-28T08:53:36;101392.06;;;1.97;100.00
24558;BME280;12726;49.148;8.582;2023-01-28T08:56:22;101396.97;;;2.02;100.00
24558;BME280;12726;49.148;8.582;2023-01-28T08:59:07;101396.72;;;2.05;100.00
24558;BME280;12726;49.148;8.582;2023-01-28T09:01:52;101399.09;;;2.08;100.00
24558;BME280;12726;49.148;8.582;2023-01-28T09:04:38;101397.03;;;2.11;100.00
24558;BME280;12726;49.148;8.582;2023-01-28T09:07:24;101406.69;;;2.12;100.00
24558;BME280;12726;49.148;8.582;2023-01-28T09:10:10;101405.00;;;2.11;100.00
24558;BME280;12726;49.148;8.582;2023-01-28T09:12:56;101406.81;;;2.11;100.00
24558;BME280;12726;49.148;8.582;2023-01-28T09:15:41;101400.53;;;2.12;100.00
24558;BME280;12726;49.148;8.582;2023-01-28T09:18:26;101403.88;;;2.14;100.00
24558;BME280;12726;49.148;8.582;2023-01-28T09:21:12;101406.53;;;2.14;99.84
24558;BME280;12726;49.148;8.582;2023-01-28T09:23:58;101411.16;;;2.21;99.83
24558;BME280;12726;49.148;8.582;2023-01-28T09:26:44;101410.91;;;2.24;99.13
24558;BME280;12726;49.148;8.582;2023-01-28T09:29:29;101412.47;;;2.27;99.34
24558;BME280;12726;49.148;8.582;2023-01-28T09:32:15;101421.00;;;2.30;99.11
24558;BME280;12726;49.148;8.582;2023-01-28T09:35:00;101417.50;;;2.30;99.38
24558;BME280;12726;49.148;8.582;2023-01-28T09:37:47;101419.91;;;2.33;99.32
24558;BME280;12726;49.148;8.582;2023-01-28T09:40:36;101413.16;;;2.29;99.17
24558;BME280;12726;49.148;8.582;2023-01-28T09:43:35;101423.69;;;2.40;99.60
24558;BME280;12726;49.148;8.582;2023-01-28T09:46:31;101429.03;;;2.40;98.55
24558;BME280;12726;49.148;8.582;2023-01-28T09:49:21;101436.16;;;2.49;96.46
24558;BME280;12726;49.148;8.582;2023-01-28T09:52:12;101423.28;;;2.45;95.95
24558;BME280;12726;49.148;8.582;2023-01-28T09:55:00;101441.47;;;2.49;95.97
24558;BME280;12726;49.148;8.582;2023-01-28T09:57:50;101438.13;;;2.47;95.60
24558;BME280;12726;49.148;8.582;2023-01-28T10:00:41;101443.91;;;2.62;94.76
24558;BME280;12726;49.148;8.582;2023-01-28T10:03:39;101440.66;;;2.58;94.92
24558;BME280;12726;49.148;8.582;2023-01-28T10:06:34;101450.88;;;2.53;94.91
24558;BME280;12726;49.148;8.582;2023-01-28T10:09:32;101451.72;;;2.54;95.43
24558;BME280;12726;49.148;8.582;2023-01-28T10:12:38;101444.31;;;2.57;95.19
24558;BME280;12726;49.148;8.582;2023-01-28T10:15:53;101438.00;;;2.58;95.14
24558;BME280;12726;49.148;8.582;2023-01-28T10:18:43;101431.19;;;2.65;94.05
24558;BME280;12726;49.148;8.582;2023-01-28T10:21:33;101440.84;;;2.66;94.25
24558;BME280;12726;49.148;8.582;2023-01-28T10:24:24;101435.53;;;2.66;94.19
24558;BME280;12726;49.148;8.582;2023-01-28T10:27:15;101428.13;;;2.70;94.01
24558;BME280;12726;49.148;8.582;2023-01-28T10:30:15;101427.00;;;2.72;94.16
24558;BME280;12726;49.148;8.582;2023-01-28T10:33:08;101432.59;;;2.79;94.51
24558;BME280;12726;49.148;8.582;2023-01-28T10:35:57;101428.03;;;2.91;94.02
24558;BME280;12726;49.148;8.582;2023-01-28T10:38:43;101435.31;;;2.98;93.42
24558;BME280;12726;49.148;8.582;2023-01-28T10:41:31;101435.72;;;3.03;92.90
24558;BME280;12726;49.148;8.582;2023-01-28T10:44:20;101436.44;;;3.05;92.97
24558;BME280;12726;49.148;8.582;2023-01-28T10:47:13;101433.06;;;3.03;92.54
24558;BME280;12726;49.148;8.582;2023-01-28T10:50:04;101438.38;;;3.03;93.18
24558;BME280;12726;49.148;8.582;2023-01-28T10:52:52;101442.28;;;2.99;93.22
24558;BME280;12726;49.148;8.582;2023-01-28T10:55:47;101442.75;;;3.04;92.92
24558;BME280;12726;49.148;8.582;2023-01-28T10:58:33;101439.91;;;3.06;91.80
24558;BME280;12726;49.148;8.582;2023-01-28T11:01:19;101437.53;;;3.03;91.49
24558;BME280;12726;49.148;8.582;2023-01-28T11:04:12;101450.72;;;3.04;91.66
24558;BME280;12726;49.148;8.582;2023-01-28T11:07:02;101451.56;;;3.05;91.75
24558;BME280;12726;49.148;8.582;2023-01-28T11:09:50;101443.28;;;3.08;91.21
24558;BME280;12726;49.148;8.582;2023-01-28T11:12:35;101443.72;;;3.03;90.86
24558;BME280;12726;49.148;8.582;2023-01-28T11:15:21;101438.94;;;3.07;91.11
24558;BME280;12726;49.148;8.582;2023-01-28T11:18:16;101451.25;;;3.08;90.90
24558;BME280;12726;49.148;8.582;2023-01-28T11:21:04;101450.56;;;3.06;90.87
24558;BME280;12726;49.148;8.582;2023-01-28T11:23:54;101455.06;;;3.05;90.29
24558;BME280;12726;49.148;8.582;2023-01-28T11:26:43;101443.41;;;3.06;90.21
24558;BME280;12726;49.148;8.582;2023-01-28T11:29:31;101446.63;;;3.00;89.59
24558;BME280;12726;49.148;8.582;2023-01-28T11:32:18;101451.69;;;3.03;89.84
24558;BME280;12726;49.148;8.582;2023-01-28T11:35:04;101453.38;;;3.04;89.59
24558;BME280;12726;49.148;8.582;2023-01-28T11:37:50;101443.59;;;3.05;89.16
24558;BME280;12726;49.148;8.582;2023-01-28T11:40:37;101452.69;;;3.12;88.07
24558;BME280;12726;49.148;8.582;2023-01-28T11:43:24;101448.75;;;3.16;87.78
24558;BME280;12726;49.148;8.582;2023-01-28T11:46:19;101453.94;;;3.27;87.80
24558;BME280;12726;49.148;8.582;2023-01-28T11:49:14;101449.47;;;3.37;86.87
24558;BME280;12726;49.148;8.582;2023-01-28T11:52:15;101453.94;;;3.46;86.33
24558;BME280;12726;49.148;8.582;2023-01-28T11:55:17;101458.56;;;3.44;86.00
24558;BME280;12726;49.148;8.582;2023-01-28T11:58:16;101450.03;;;3.41;85.55
24558;BME280;12726;49.148;8.582;2023-01-28T12:01:09;101451.97;;;3.48;85.47
24558;BME280;12726;49.148;8.582;2023-01-28T12:04:20;101452.84;;;3.39;85.19
24558;BME280;12726;49.148;8.582;2023-01-28T12:07:21;101448.06;;;3.43;84.25
24558;BME280;12726;49.148;8.582;2023-01-28T12:10:15;101441.75;;;3.34;84.09
24558;BME280;12726;49.148;8.582;2023-01-28T12:13:11;101439.50;;;3.30;83.86
24558;BME280;12726;49.148;8.582;2023-01-28T12:16:11;101434.19;;;3.30;84.31
24558;BME280;12726;49.148;8.582;2023-01-28T12:19:14;101436.03;;;3.39;83.34
24558;BME280;12726;49.148;8.582;2023-01-28T12:22:19;101442.44;;;3.36;83.86
24558;BME280;12726;49.148;8.582;2023-01-28T12:25:21;101424.41;;;3.40;83.69
24558;BME280;12726;49.148;8.582;2023-01-28T12:28:14;101437.28;;;3.44;83.00
24558;BME280;12726;49.148;8.582;2023-01-28T12:31:16;101427.59;;;3.43;82.76
24558;BME280;12726;49.148;8.582;2023-01-28T12:34:27;101420.72;;;3.50;83.05
24558;BME280;12726;49.148;8.582;2023-01-28T12:37:23;101422.53;;;3.60;82.69
24558;BME280;12726;49.148;8.582;2023-01-28T12:40:24;101418.06;;;3.60;81.41
24558;BME280;12726;49.148;8.582;2023-01-28T12:43:21;101416.19;;;3.70;80.48
24558;BME280;12726;49.148;8.582;2023-01-28T12:46:14;101421.13;;;3.65;81.52
24558;BME280;12726;49.148;8.582;2023-01-28T12:49:04;101422.53;;;3.60;80.27
24558;BME280;12726;49.148;8.582;2023-01-28T12:51:58;101430.25;;;3.53;80.06
24558;BME280;12726;49.148;8.582;2023-01-28T12:54:52;101424.22;;;3.51;80.51
24558;BME280;12726;49.148;8.582;2023-01-28T12:57:40;101417.34;;;3.48;80.25
24558;BME280;12726;49.148;8.582;2023-01-28T13:00:30;101418.91;;;3.41;81.43
24558;BME280;12726;49.148;8.582;2023-01-28T13:03:20;101414.44;;;3.42;81.12
24558;BME280;12726;49.148;8.582;2023-01-28T13:06:12;101418.06;;;3.50;80.10
24558;BME280;12726;49.148;8.582;2023-01-28T13:09:02;101414.84;;;3.47;80.22
24558;BME280;12726;49.148;8.582;2023-01-28T13:11:56;101417.78;;;3.53;79.25
24558;BME280;12726;49.148;8.582;2023-01-28T13:14:43;101415.13;;;3.53;78.72
24558;BME280;12726;49.148;8.582;2023-01-28T13:17:31;101416.50;;;3.58;78.57
24558;BME280;12726;49.148;8.582;2023-01-28T13:20:35;101423.78;;;3.55;77.97
24558;BME280;12726;49.148;8.582;2023-01-28T13:23:25;101425.47;;;3.57;77.83
24558;BME280;12726;49.148;8.582;2023-01-28T13:26:28;101422.81;;;3.57;77.74
24558;BME280;12726;49.148;8.582;2023-01-28T13:29:20;101428.97;;;3.57;77.41
24558;BME280;12726;49.148;8.582;2023-01-28T13:32:26;101419.31;;;3.56;78.27
24558;BME280;12726;49.148;8.582;2023-01-28T13:35:29;101419.88;;;3.60;78.32
24558;BME280;12726;49.148;8.582;2023-01-28T13:38:18;101430.81;;;3.66;77.13
24558;BME280;12726;49.148;8.582;2023-01-28T13:41:04;101424.34;;;3.69;77.24
24558;BME280;12726;49.148;8.582;2023-01-28T13:43:49;101432.63;;;3.66;76.84
24558;BME280;12726;49.148;8.582;2023-01-28T13:46:34;101436.25;;;3.65;76.85
24558;BME280;12726;49.148;8.582;2023-01-28T13:49:27;101437.69;;;3.59;77.35
24558;BME280;12726;49.148;8.582;2023-01-28T13:52:25;101447.34;;;3.50;77.44
24558;BME280;12726;49.148;8.582;2023-01-28T13:55:17;101435.19;;;3.48;77.00
24558;BME280;12726;49.148;8.582;2023-01-28T13:58:37;101442.31;;;3.38;77.45
24558;BME280;12726;49.148;8.582;2023-01-28T14:01:37;101441.91;;;3.33;77.33
24558;BME280;12726;49.148;8.582;2023-01-28T14:04:43;101447.94;;;3.25;76.95
24558;BME280;12726;49.148;8.582;2023-01-28T14:07:54;101457.03;;;3.23;77.41
24558;BME280;12726;49.148;8.582;2023-01-28T14:10:56;101458.97;;;3.11;78.53
24558;BME280;12726;49.148;8.582;2023-01-28T14:17:19;101468.63;;;3.02;79.78
24558;BME280;12726;49.148;8.582;2023-01-28T14:20:15;101467.78;;;3.02;79.45
24558;BME280;12726;49.148;8.582;2023-01-28T14:23:05;101473.66;;;2.96;79.92
24558;BME280;12726;49.148;8.582;2023-01-28T14:26:08;101479.41;;;2.91;80.10
24558;BME280;12726;49.148;8.582;2023-01-28T14:29:07;101488.91;;;2.94;79.79
24558;BME280;12726;49.148;8.582;2023-01-28T14:32:02;101496.47;;;2.89;80.28
24558;BME280;12726;49.148;8.582;2023-01-28T14:34:48;101488.63;;;2.87;80.91
24558;BME280;12726;49.148;8.582;2023-01-28T14:37:34;101488.63;;;2.87;79.89
24558;BME280;12726;49.148;8.582;2023-01-28T14:40:21;101505.13;;;2.81;79.81
24558;BME280;12726;49.148;8.582;2023-01-28T14:43:08;101501.88;;;2.78;79.92
24558;BME280;12726;49.148;8.582;2023-01-28T14:46:11;101485.78;;;2.79;79.36
24558;BME280;12726;49.148;8.582;2023-01-28T14:49:14;101491.41;;;2.86;77.34
24558;BME280;12726;49.148;8.582;2023-01-28T14:52:15;101495.41;;;2.70;78.08
24558;BME280;12726;49.148;8.582;2023-01-28T14:55:17;101497.50;;;2.67;78.74
24558;BME280;12726;49.148;8.582;2023-01-28T14:58:13;101505.31;;;2.59;78.16
24558;BME280;12726;49.148;8.582;2023-01-28T15:01:00;101493.84;;;2.58;77.51